Pagrindinis puslapis
METAR-TAF:

METAR-TAF

Oro uostai :

Damaskas, Sirija

platuma: 33-25N, ilguma: 036-31E, Aukštis: 608 m

Dabartinis oras

Ataskaita buvo paskelbta 49 minutes, ne 15:00 UTC
Vėjas 12 kt iš Vakarų/Pietvakarių
Temperatūra 26°C
Drėgmė 32%
Slėgis 1009 hPa
Matomumas 10 km arba daugiau
Mažai debesys ne aukštis 3000 ft

METAR: OSDI 231500Z 24012KT 9999 FEW030 26/08 Q1009

Laikas: 18:49 (15:49 UTC)

Prognozė

Ataskaita buvo paskelbta 5 valandos ir 49 minutes, ne 10:00 UTC
Prognozė galioja nuo 23 metu 12 UTC su 24 metu 18 UTC
Vėjas 20 kt iš Vakarų/Pietvakarių su gūsio iki 40 kt
Matomumas: 8000 m
Mažai debesys ne aukštis 3000 ft
Išsisklaidę debesys ne aukštis 10000 ft
Laikinai
nuo 23 metu 18 UTC su 24 metu 06 UTC
Vėjas 15 kt iš Pietvakarių

TAF: OSDI 231000Z 2312/2418 24020G40KT 8000 FEW030 SCT100 TEMPO 2318/2406 22015KT

Orai ataskaitas ir orų prognozės (METAR, TAF).

turimą stotys yra geltonos ir raudonos taškus žemėlapyje.

Perkelti pele per norėdami pamatyti stoties vardą.

Tada spustelėkite, norėdami matyti oro stebėjimo ir prognozės.

Norėdami pakeisti žemėlapį: spustelėkite ant žalios mygtukų su juodo kryžiaus žemyn,; žalią mygtuką su brūkšneliu, jei norite nutolinti; arba žalių rodyklių gretimoms žemėlapius.


METAR-TAF: